VTSBVTSP

Guest
Details From VTSB - Surat Thani
To VTSP - Phuket Intl
Flight Number -
Tags generated
Created
Modified
Stats Distance 78 nm / 145 km
Max Altitude 0 ft / 0 m
Waypoints 3
Social Downloads 0
Likes 0
Share VATSIM

Download

Looking for another format? Having issues loading an existing format? Contact us
Advertisement - Login to hide

Notes

Basic altitude profile: - Ascent Rate: 2500ft/min - Ascent Speed: 250kts - Cruise Altitude: 35000ft - Cruise Speed: 420kts - Descent Rate: 1500ft/min - Descent Speed: 250kts Options: - Use NATs: yes - Use PACOTS: yes - Use low airways: yes - Use high airways: yes

Route

VTSB STN VTSP

ID Type Via Altitude Latitude Longitude Leg Dist Tot Dist Heading (true) Name
O VTSB APT - 0 ft / 0 m 9.13260˚ 99.13559˚ - 0 nm - Surat Thani
STN VOR - 0 ft / 0 m 9.12951˚ 99.13475˚ 0 nm 0 nm 195° / 195° SURAT THANI VOR-DME
O VTSP APT - 0 ft / 0 m 8.11320˚ 98.31687˚ 77 nm 78 nm 219° / 218° Phuket Intl

Altitude Profile

Advertisement - Login to hide

VTSB

Details ICAO VTSB (URT)
Name Surat Thani
Region Thailand
Timezone Asia/Bangkok (UTC+7.0)
Stats Elevation 20 ft / 6 m (AMSL)
Location 9.132603° 99.135586°
Runways 1
Magnetic Variation 0.411° W

METAR

Not found

TAF

TAF VTSB 171700Z 1718/1818 34005KT 5000 BR FEW020 TEMPO 1721/1803 4000 -RA BR SCT015 BKN100 BECMG 1803/1805 05012KT 8000 NSW TEMPO 1805/1811 05012G22KT 5000 RA SCT015 BKN100 BECMG 1813/1815 34005KT

Decode

Departure Runways

ID Width Length Bearing (true) Bearing (mag) Surface Threshold Offset Overrun Length
04 148 ft / 45 m 9,912 ft / 3,021 m 43.98° 44.39° Asphalt 0 ft / 0 m 250 ft / 76 m
22 148 ft / 45 m 9,912 ft / 3,021 m 223.99° 224.40° Asphalt 0 ft / 0 m 230 ft / 70 m

VTSP

Details ICAO VTSP (HKT)
Name Phuket Intl
Region Thailand
Timezone Asia/Bangkok (UTC+7.0)
Stats Elevation 82 ft / 25 m (AMSL)
Location 8.113199° 98.316871°
Runways 1
Magnetic Variation 0.433° W

METAR

VTSP 172100Z VRB07KT 9000 FEW020 26/21 Q1010 NOSIG

Decode

TAF

TAF VTSP 171700Z 1718/1824 VRB03KT 8000 SCT020 BECMG 1800/1802 08008KT 9999 FEW020 TEMPO 1808/1812 VRB15G25KT 3000 TSRA FEW018CB SCT020 BKN100 BECMG 1715/1717 VRB03KT 8000 SCT020

Decode

Destination Runways

ID Width Length Bearing (true) Bearing (mag) Surface Threshold Offset Overrun Length
09 148 ft / 45 m 9,870 ft / 3,008 m 84.45° 84.88° Asphalt 0 ft / 0 m 197 ft / 60 m
27 148 ft / 45 m 9,870 ft / 3,008 m 264.46° 264.89° Asphalt 0 ft / 0 m 197 ft / 60 m

Approach Navaids

Runway Type Ident Frequency Range Bearing (true) Bearing (mag) Slope Elevation
27 Localiser IPKT 109.90 MHz 18 nm / 33 km 263.45° 263.89° - 19 ft / 6 m (AMSL)
27 Glidescope IPKT 109.90 MHz 10 nm / 19 km 263.45° 263.89° 3.20° 82 ft / 25 m (AMSL)
27 DME IPKT 109.90 MHz 18 nm / 33 km - - - 82 ft / 25 m (AMSL)

Popular Alternatives